createdAt,value
2018-07-10T00:02:32.782Z,63.13
2018-07-10T00:05:53.449Z,62.53
2018-07-10T00:08:59.269Z,66.77
2018-07-10T00:11:32.221Z,64.43
2018-07-10T00:14:03.307Z,66.57
2018-07-10T00:16:34.084Z,63.53
2018-07-10T00:19:04.362Z,65.23
2018-07-10T00:21:35.088Z,65.23
2018-07-10T00:24:05.324Z,63.53
2018-07-10T00:26:42.819Z,63.47
2018-07-10T00:29:14.148Z,64.77
2018-07-10T00:31:44.373Z,64.63
2018-07-10T00:34:16.554Z,65.40
2018-07-10T00:36:46.870Z,64.60
2018-07-10T00:39:17.500Z,66.20
2018-07-10T00:41:49.535Z,62.47
2018-07-10T00:44:19.832Z,63.80
2018-07-10T00:46:50.639Z,63.77
2018-07-10T00:49:21.327Z,63.80
2018-07-10T00:51:51.966Z,65.30
2018-07-10T00:54:22.570Z,65.63
2018-07-10T00:56:54.256Z,66.10
2018-07-10T00:59:24.548Z,65.90
2018-07-10T01:01:56.853Z,64.40
2018-07-10T01:04:28.072Z,62.03
2018-07-10T01:06:58.156Z,64.10
2018-07-10T01:09:28.972Z,61.37
2018-07-10T01:11:59.957Z,64.13
2018-07-10T01:14:31.370Z,65.30
2018-07-10T01:17:02.021Z,64.67
2018-07-10T01:19:33.133Z,64.67
2018-07-10T01:22:03.613Z,66.47
2018-07-10T01:24:34.480Z,61.53
2018-07-10T01:27:05.312Z,64.17
2018-07-10T01:29:40.724Z,66.10
2018-07-10T01:32:11.499Z,64.20
2018-07-10T01:34:41.974Z,62.27
2018-07-10T01:37:12.688Z,65.67
2018-07-10T01:39:43.795Z,63.63
2018-07-10T01:42:14.873Z,66.37
2018-07-10T01:44:45.268Z,64.03
2018-07-10T01:47:16.581Z,64.13
2018-07-10T01:49:46.970Z,64.47
2018-07-10T01:52:17.320Z,65.00
2018-07-10T01:54:47.873Z,63.13
2018-07-10T01:57:18.290Z,65.30
2018-07-10T01:59:48.888Z,61.83
2018-07-10T02:02:22.444Z,62.87
2018-07-10T02:04:55.003Z,64.40
2018-07-10T02:07:26.769Z,64.73
2018-07-10T02:09:57.249Z,65.63
2018-07-10T02:12:27.736Z,63.07
2018-07-10T02:14:58.620Z,63.17
2018-07-10T02:17:29.471Z,63.80
2018-07-10T02:19:59.816Z,65.67
2018-07-10T02:22:30.177Z,64.77
2018-07-10T02:25:01.554Z,63.10
2018-07-10T02:27:32.032Z,66.20
2018-07-10T02:30:02.243Z,62.90
2018-07-10T02:32:33.208Z,67.20
2018-07-10T02:35:04.306Z,65.03
2018-07-10T02:37:35.474Z,64.73
2018-07-10T02:40:07.500Z,63.57
2018-07-10T02:42:38.778Z,67.23
2018-07-10T02:45:10.077Z,66.67
2018-07-10T02:47:41.939Z,66.37
2018-07-10T02:50:13.302Z,64.10
2018-07-10T02:52:44.739Z,64.57
2018-07-10T02:55:15.703Z,62.60
2018-07-10T02:57:46.541Z,62.83
2018-07-10T03:00:17.786Z,63.90
2018-07-10T03:02:48.915Z,63.30
2018-07-10T03:05:20.033Z,63.83
2018-07-10T03:07:51.489Z,62.17
2018-07-10T03:10:21.803Z,62.80
2018-07-10T03:12:52.640Z,63.40
2018-07-10T03:15:23.923Z,62.13
2018-07-10T03:17:54.566Z,61.90
2018-07-10T03:20:25.238Z,63.30
2018-07-10T03:22:55.684Z,62.17
2018-07-10T03:25:26.417Z,62.57
2018-07-10T03:27:57.240Z,63.60
2018-07-10T03:30:27.736Z,63.07
2018-07-10T03:32:58.261Z,65.20
2018-07-10T03:35:29.333Z,62.40
2018-07-10T03:38:00.136Z,64.00
2018-07-10T03:40:31.505Z,62.17
2018-07-10T03:43:01.785Z,62.10
2018-07-10T03:45:32.903Z,62.80
2018-07-10T03:48:03.842Z,63.17
2018-07-10T03:50:35.926Z,61.63
2018-07-10T03:53:06.286Z,63.00
2018-07-10T03:55:39.187Z,62.67
2018-07-10T03:58:09.643Z,63.10
2018-07-10T04:00:40.591Z,62.67
2018-07-10T04:03:11.075Z,63.97
2018-07-10T04:05:42.002Z,62.03
2018-07-10T04:08:13.767Z,63.30
2018-07-10T04:10:44.597Z,63.07
2018-07-10T04:13:19.473Z,62.27
2018-07-10T04:15:56.173Z,62.03
2018-07-10T04:18:30.328Z,64.27
2018-07-10T04:21:33.956Z,63.40
2018-07-10T04:24:16.914Z,61.60
2018-07-10T04:27:25.950Z,63.17
2018-07-10T04:30:18.941Z,61.30
2018-07-10T04:32:49.616Z,61.10
2018-07-10T04:35:26.428Z,61.53
2018-07-10T04:37:57.322Z,63.57
2018-07-10T04:40:32.062Z,65.03
2018-07-10T04:43:06.894Z,63.80
2018-07-10T04:45:43.411Z,61.73
2018-07-10T04:48:39.898Z,66.27
2018-07-10T04:51:32.539Z,63.80
2018-07-10T04:55:15.904Z,62.50
2018-07-10T04:58:08.512Z,64.47
2018-07-10T05:00:58.681Z,63.13
2018-07-10T05:03:30.559Z,63.57
2018-07-10T05:06:07.130Z,62.03
2018-07-10T05:08:37.861Z,62.47
2018-07-10T05:11:08.709Z,61.33
2018-07-10T05:13:39.708Z,62.67
2018-07-10T05:16:10.975Z,63.97
2018-07-10T05:18:41.604Z,65.37
2018-07-10T05:21:18.139Z,62.10
2018-07-10T05:23:49.720Z,66.07
2018-07-10T05:26:20.959Z,63.10
2018-07-10T05:28:54.608Z,62.57
2018-07-10T05:31:25.653Z,62.83
2018-07-10T05:33:56.317Z,62.20
2018-07-10T05:36:26.769Z,63.57
2018-07-10T05:39:06.555Z,62.03
2018-07-10T05:41:52.096Z,61.83
2018-07-10T05:44:23.601Z,63.20
2018-07-10T05:46:57.482Z,62.87
2018-07-10T05:49:28.318Z,64.80
2018-07-10T05:51:59.031Z,61.10
2018-07-10T05:54:29.850Z,61.33
2018-07-10T05:57:00.832Z,61.60
2018-07-10T05:59:31.115Z,63.57
2018-07-10T06:02:02.266Z,68.63
2018-07-10T06:04:33.275Z,64.60
2018-07-10T06:07:04.521Z,62.97
2018-07-10T06:09:34.960Z,64.87
2018-07-10T06:12:05.266Z,62.10
2018-07-10T06:14:35.608Z,65.57
2018-07-10T06:17:06.717Z,66.73
2018-07-10T06:19:37.041Z,67.50
2018-07-10T06:22:07.787Z,65.97
2018-07-10T06:24:38.992Z,64.87
2018-07-10T06:27:09.637Z,62.93
2018-07-10T06:30:07.045Z,68.80
2018-07-10T06:32:54.752Z,63.90
2018-07-10T06:35:47.414Z,67.43
2018-07-10T06:38:19.652Z,62.90
2018-07-10T06:40:51.894Z,66.13
2018-07-10T06:43:59.514Z,65.60
2018-07-10T06:46:41.508Z,64.27
2018-07-10T06:49:36.270Z,68.17
2018-07-10T06:52:18.297Z,64.53
2018-07-10T06:55:15.430Z,71.17
2018-07-10T06:57:55.434Z,66.03
2018-07-10T07:00:26.178Z,65.93
2018-07-10T07:02:56.645Z,66.23
2018-07-10T07:05:26.951Z,67.20
2018-07-10T07:07:57.323Z,65.70
2018-07-10T07:10:27.880Z,63.67
2018-07-10T07:12:58.801Z,66.60
2018-07-10T07:15:31.777Z,65.03
2018-07-10T07:18:06.363Z,65.37
2018-07-10T07:20:36.748Z,66.10
2018-07-10T07:23:06.877Z,66.40
2018-07-10T07:25:37.102Z,66.30
2018-07-10T07:28:08.329Z,68.00
2018-07-10T07:30:38.668Z,67.57
2018-07-10T07:33:09.238Z,66.93
2018-07-10T07:35:39.710Z,66.20
2018-07-10T07:38:10.407Z,67.60
2018-07-10T07:40:41.442Z,67.43
2018-07-10T07:43:11.874Z,67.47
2018-07-10T07:45:44.033Z,68.63
2018-07-10T07:48:15.882Z,69.30
2018-07-10T07:50:46.853Z,73.50
2018-07-10T07:53:17.976Z,67.97
2018-07-10T07:55:49.006Z,65.73
2018-07-10T07:58:20.013Z,68.13
2018-07-10T08:00:50.322Z,79.87
2018-07-10T08:03:22.159Z,73.57
2018-07-10T08:05:55.261Z,68.10
2018-07-10T08:08:26.727Z,68.50
2018-07-10T08:10:57.826Z,68.77
2018-07-10T08:13:28.593Z,68.53
2018-07-10T08:15:59.200Z,66.63
2018-07-10T08:18:29.845Z,71.83
2018-07-10T08:20:59.841Z,66.63
2018-07-10T08:23:30.535Z,70.87
2018-07-10T08:26:01.909Z,68.23
2018-07-10T08:28:32.628Z,68.23
2018-07-10T08:31:04.583Z,71.67
2018-07-10T08:33:35.149Z,71.00
2018-07-10T08:36:05.535Z,65.60
2018-07-10T08:38:45.291Z,67.67
2018-07-10T08:41:26.024Z,65.93
2018-07-10T08:43:57.128Z,67.13
2018-07-10T08:46:30.207Z,68.73
2018-07-10T08:49:01.956Z,69.70
2018-07-10T08:51:32.676Z,69.60
2018-07-10T08:54:03.223Z,70.10
2018-07-10T08:56:33.544Z,66.50
2018-07-10T08:59:04.356Z,69.83
2018-07-10T09:01:34.981Z,70.50
2018-07-10T09:04:05.722Z,72.60
2018-07-10T09:06:36.200Z,69.50
2018-07-10T09:09:07.186Z,71.93
2018-07-10T09:11:37.445Z,71.53
2018-07-10T09:14:08.126Z,71.10
2018-07-10T09:16:39.468Z,68.60
2018-07-10T09:19:11.683Z,69.97
2018-07-10T09:21:48.188Z,72.17
2018-07-10T09:24:19.162Z,68.63
2018-07-10T09:26:51.532Z,68.30
2018-07-10T09:29:23.567Z,71.77
2018-07-10T09:31:56.536Z,67.33
2018-07-10T09:34:27.119Z,66.73
2018-07-10T09:36:57.339Z,70.60
2018-07-10T09:39:29.063Z,69.53
2018-07-10T09:42:00.312Z,68.10
2018-07-10T09:44:31.355Z,68.43
2018-07-10T09:47:02.085Z,68.97
2018-07-10T09:49:32.437Z,68.83
2018-07-10T09:52:02.786Z,76.90
2018-07-10T09:54:33.603Z,71.60
2018-07-10T09:57:04.432Z,71.20
2018-07-10T09:59:34.692Z,68.40
2018-07-10T10:02:09.954Z,77.90
2018-07-10T10:04:41.394Z,70.87
2018-07-10T10:07:11.784Z,74.07
2018-07-10T10:09:41.878Z,75.83
2018-07-10T10:12:19.461Z,73.23
2018-07-10T10:14:50.038Z,69.80
2018-07-10T10:17:22.066Z,72.67
2018-07-10T10:19:55.006Z,73.47
2018-07-10T10:22:26.366Z,70.73
2018-07-10T10:24:57.160Z,68.63
2018-07-10T10:27:28.970Z,71.70
2018-07-10T10:29:59.750Z,71.40
2018-07-10T10:32:30.056Z,67.60
2018-07-10T10:35:00.553Z,70.50
2018-07-10T10:37:31.307Z,67.10
2018-07-10T10:40:02.728Z,71.07
2018-07-10T10:42:33.077Z,70.50
2018-07-10T10:45:03.555Z,70.90
2018-07-10T10:47:35.046Z,69.07
2018-07-10T10:50:06.001Z,70.37
2018-07-10T10:52:36.820Z,71.83
2018-07-10T10:55:07.745Z,70.53
2018-07-10T10:57:40.083Z,74.53
2018-07-10T11:00:11.286Z,70.53
2018-07-10T11:02:42.272Z,70.90
2018-07-10T11:05:12.727Z,70.07
2018-07-10T11:07:43.467Z,72.63
2018-07-10T11:10:14.214Z,70.47
2018-07-10T11:12:45.820Z,71.70
2018-07-10T11:15:16.449Z,71.97
2018-07-10T11:18:02.102Z,71.33
2018-07-10T11:20:50.482Z,71.17
2018-07-10T11:24:00.822Z,71.10
2018-07-10T11:26:43.479Z,75.57
2018-07-10T11:29:14.489Z,71.43
2018-07-10T11:31:45.649Z,70.57
2018-07-10T11:34:16.967Z,72.20
2018-07-10T11:36:47.227Z,73.00
2018-07-10T11:39:19.598Z,72.10
2018-07-10T11:41:54.931Z,70.63
2018-07-10T11:44:25.248Z,67.97
2018-07-10T11:46:55.588Z,73.00
2018-07-10T11:49:26.471Z,71.50
2018-07-10T11:51:57.697Z,72.60
2018-07-10T11:54:28.371Z,73.30
2018-07-10T11:56:59.043Z,70.30
2018-07-10T11:59:29.405Z,71.03
2018-07-10T12:02:00.479Z,73.20
2018-07-10T12:04:35.791Z,72.17
2018-07-10T12:07:06.232Z,78.63
2018-07-10T12:09:47.000Z,85.43
2018-07-10T12:12:18.206Z,72.67
2018-07-10T12:14:48.469Z,74.27
2018-07-10T12:17:18.772Z,73.97
2018-07-10T12:19:48.984Z,72.63
2018-07-10T12:22:19.619Z,69.53
2018-07-10T12:24:50.115Z,70.73
2018-07-10T12:27:20.587Z,71.47
2018-07-10T12:29:51.568Z,72.80
2018-07-10T12:32:22.379Z,70.57
2018-07-10T12:34:53.164Z,79.27
2018-07-10T12:37:24.069Z,71.23
2018-07-10T12:39:54.569Z,68.60
2018-07-10T12:42:25.130Z,76.10
2018-07-10T12:44:55.476Z,69.30
2018-07-10T12:47:27.024Z,71.00
2018-07-10T12:49:58.591Z,70.97
2018-07-10T12:52:29.385Z,69.70
2018-07-10T12:55:01.124Z,71.40
2018-07-10T12:57:39.676Z,73.23
2018-07-10T13:00:10.239Z,70.60
2018-07-10T13:02:43.685Z,71.87
2018-07-10T13:05:16.134Z,71.17
2018-07-10T13:07:46.577Z,73.27
2018-07-10T13:10:17.301Z,71.97
2018-07-10T13:12:48.326Z,70.20
2018-07-10T13:15:18.623Z,68.90
2018-07-10T13:17:51.515Z,72.13
2018-07-10T13:20:22.041Z,76.53
2018-07-10T13:22:52.801Z,73.43
2018-07-10T13:25:22.897Z,72.27
2018-07-10T13:27:53.247Z,73.00
2018-07-10T13:30:23.865Z,72.10
2018-07-10T13:32:55.438Z,71.50
2018-07-10T13:35:25.621Z,72.37
2018-07-10T13:37:56.509Z,72.53
2018-07-10T13:40:27.575Z,73.40
2018-07-10T13:43:00.309Z,71.70
2018-07-10T13:45:31.812Z,72.70
2018-07-10T13:48:02.703Z,78.80
2018-07-10T13:50:34.122Z,73.63
2018-07-10T13:53:04.961Z,71.67
2018-07-10T13:55:35.485Z,73.10
2018-07-10T13:58:12.395Z,77.83
2018-07-10T14:00:47.358Z,77.27
2018-07-10T14:03:18.679Z,74.27
2018-07-10T14:05:49.472Z,75.90
2018-07-10T14:08:20.387Z,78.07
2018-07-10T14:10:51.996Z,76.43
2018-07-10T14:13:22.458Z,81.43
2018-07-10T14:15:52.966Z,77.40
2018-07-10T14:18:24.885Z,76.83
2018-07-10T14:21:06.641Z,80.97
2018-07-10T14:23:37.312Z,79.67
2018-07-10T14:26:08.115Z,80.60
2018-07-10T14:29:03.126Z,80.67
2018-07-10T14:31:34.468Z,81.28
2018-07-10T14:34:05.507Z,81.00
2018-07-10T14:36:36.008Z,81.30
2018-07-10T14:39:06.389Z,80.75
2018-07-10T14:41:37.425Z,81.20
2018-07-10T14:44:08.259Z,81.60
2018-07-10T14:46:39.260Z,83.72
2018-07-10T14:49:10.698Z,84.28
2018-07-10T14:51:46.149Z,82.40
2018-07-10T14:54:16.823Z,80.25
2018-07-10T14:56:48.285Z,88.25
2018-07-10T14:59:18.601Z,88.10
2018-07-10T15:01:49.041Z,81.78
2018-07-10T15:04:19.774Z,79.87
2018-07-10T15:06:50.600Z,83.12
2018-07-10T15:09:21.191Z,83.62
2018-07-10T15:11:51.939Z,82.10
2018-07-10T15:14:22.598Z,80.80
2018-07-10T15:16:58.940Z,85.30
2018-07-10T15:19:29.595Z,83.22
2018-07-10T15:22:00.308Z,83.37
2018-07-10T15:24:31.430Z,84.65
2018-07-10T15:27:01.916Z,82.47
2018-07-10T15:29:33.096Z,88.03
2018-07-10T15:32:03.746Z,88.17
2018-07-10T15:34:35.017Z,84.60
2018-07-10T15:37:05.589Z,80.77
2018-07-10T15:39:36.665Z,80.72
2018-07-10T15:42:06.841Z,84.85
2018-07-10T15:44:36.972Z,80.72
2018-07-10T15:47:07.648Z,81.80
2018-07-10T15:49:38.158Z,80.65
2018-07-10T15:52:08.631Z,80.55
2018-07-10T15:54:40.109Z,81.85
2018-07-10T15:57:10.393Z,82.67
2018-07-10T15:59:40.597Z,81.08
2018-07-10T16:02:11.885Z,82.15
2018-07-10T16:04:42.275Z,81.57
2018-07-10T16:07:12.484Z,83.95
2018-07-10T16:09:43.726Z,82.60
2018-07-10T16:12:15.665Z,82.45
2018-07-10T16:14:47.513Z,80.03
2018-07-10T16:17:23.074Z,82.40
2018-07-10T16:20:16.919Z,83.75
2018-07-10T16:22:48.486Z,81.92
2018-07-10T16:25:34.485Z,81.60
2018-07-10T16:28:27.197Z,82.33
2018-07-10T16:30:58.762Z,83.30
2018-07-10T16:33:34.482Z,86.32
2018-07-10T16:36:08.284Z,82.40
2018-07-10T16:38:39.838Z,84.32
2018-07-10T16:41:17.915Z,83.30
2018-07-10T16:43:49.135Z,83.42
2018-07-10T16:46:28.846Z,81.72
2018-07-10T16:50:12.278Z,87.08
2018-07-10T16:52:56.420Z,85.72
2018-07-10T16:55:28.329Z,85.45
2018-07-10T16:57:59.736Z,79.72
2018-07-10T17:00:32.318Z,84.65
2018-07-10T17:03:03.525Z,82.17
2018-07-10T17:05:34.369Z,88.62
2018-07-10T17:08:06.284Z,83.82
2018-07-10T17:10:37.336Z,82.45
2018-07-10T17:13:08.490Z,84.47
2018-07-10T17:15:46.564Z,85.15
2018-07-10T17:18:18.427Z,83.22
2018-07-10T17:20:49.475Z,82.80
2018-07-10T17:23:22.541Z,84.50
2018-07-10T17:26:00.271Z,87.72
2018-07-10T17:28:32.218Z,83.40
2018-07-10T17:31:03.708Z,81.75
2018-07-10T17:33:35.341Z,83.67
2018-07-10T17:36:05.559Z,82.15
2018-07-10T17:38:36.920Z,83.05
2018-07-10T17:41:09.391Z,86.00
2018-07-10T17:43:39.924Z,84.10
2018-07-10T17:46:10.444Z,82.10
2018-07-10T17:48:41.127Z,83.82
2018-07-10T17:51:12.145Z,84.83
2018-07-10T17:53:42.749Z,85.62
2018-07-10T17:56:14.637Z,83.90
2018-07-10T17:58:46.059Z,81.45
2018-07-10T18:01:16.800Z,85.28
2018-07-10T18:03:48.886Z,83.22
2018-07-10T18:06:19.973Z,84.60
2018-07-10T18:08:50.800Z,85.45
2018-07-10T18:11:21.210Z,85.32
2018-07-10T18:13:51.869Z,81.87
2018-07-10T18:16:22.966Z,81.80
2018-07-10T18:18:53.529Z,83.70
2018-07-10T18:21:24.001Z,82.88
2018-07-10T18:23:54.173Z,82.97
2018-07-10T18:26:24.510Z,88.58
2018-07-10T18:28:55.612Z,85.92
2018-07-10T18:31:26.236Z,85.32
2018-07-10T18:34:04.232Z,82.67
2018-07-10T18:36:35.715Z,86.40
2018-07-10T18:39:07.665Z,85.17
2018-07-10T18:44:26.895Z,82.83
2018-07-10T18:47:03.687Z,80.53
2018-07-10T18:49:34.944Z,83.87
2018-07-10T18:52:05.331Z,81.33
2018-07-10T18:54:54.447Z,80.53
2018-07-10T18:58:13.585Z,81.37
2018-07-10T19:01:58.873Z,158.93
2018-07-10T19:05:13.219Z,83.60
2018-07-10T19:07:43.707Z,85.37
2018-07-10T19:10:15.083Z,84.10
2018-07-10T19:12:45.828Z,83.57
2018-07-10T19:15:20.626Z,81.63
2018-07-10T19:17:51.734Z,81.30
2018-07-10T19:20:30.805Z,81.97
2018-07-10T19:23:08.828Z,89.30
2018-07-10T19:25:40.057Z,81.53
2018-07-10T19:28:24.446Z,79.17
2018-07-10T19:31:02.371Z,81.93
2018-07-10T19:33:41.444Z,79.00
2018-07-10T19:36:23.121Z,77.40
2018-07-10T19:38:59.612Z,78.13
2018-07-10T19:41:39.672Z,82.07
2018-07-10T19:44:10.021Z,79.57
2018-07-10T19:46:40.573Z,81.00
2018-07-10T19:49:13.417Z,78.37
2018-07-10T19:51:48.078Z,78.03
2018-07-10T19:54:19.646Z,77.63
2018-07-10T19:56:58.382Z,77.50
2018-07-10T19:59:30.762Z,78.00
2018-07-10T20:02:02.777Z,73.93
2018-07-10T20:05:16.319Z,76.30
2018-07-10T20:08:00.750Z,77.77
2018-07-10T20:10:58.112Z,78.17
2018-07-10T20:13:46.558Z,78.70
2018-07-10T20:16:56.576Z,76.57
2018-07-10T20:20:36.466Z,74.50
2018-07-10T20:23:43.677Z,75.50
2018-07-10T20:26:51.183Z,72.87
2018-07-10T20:30:09.212Z,73.90
2018-07-10T20:33:17.698Z,74.17
2018-07-10T20:35:52.641Z,77.67
2018-07-10T20:38:23.955Z,72.47
2018-07-10T20:40:56.390Z,73.73
2018-07-10T20:43:27.943Z,73.07
2018-07-10T20:46:00.907Z,70.80
2018-07-10T20:48:57.628Z,71.83
2018-07-10T20:51:33.847Z,70.50
2018-07-10T20:54:33.208Z,72.17
2018-07-10T20:57:48.334Z,73.67
2018-07-10T21:00:24.941Z,73.03
2018-07-10T21:03:14.826Z,72.17
2018-07-10T21:05:51.446Z,69.40
2018-07-10T21:09:06.541Z,70.90
2018-07-10T21:11:59.254Z,74.37
2018-07-10T21:16:57.683Z,71.70
2018-07-10T21:19:45.608Z,71.97
2018-07-10T21:24:41.024Z,75.37
2018-07-10T21:27:24.262Z,70.30
2018-07-10T21:30:11.524Z,70.17
2018-07-10T21:34:50.336Z,71.67
2018-07-10T21:39:46.532Z,70.50
2018-07-10T21:44:43.746Z,70.10
2018-07-10T21:49:35.988Z,69.07
2018-07-10T21:52:06.513Z,73.63
2018-07-10T21:54:37.984Z,73.33
2018-07-10T21:57:08.691Z,70.47
2018-07-10T21:59:48.616Z,67.33
2018-07-10T22:02:21.865Z,70.10
2018-07-10T22:04:57.756Z,70.80
2018-07-10T22:07:30.745Z,66.70
2018-07-10T22:10:08.251Z,66.77
2018-07-10T22:12:47.561Z,68.10
2018-07-10T22:15:18.864Z,66.63
2018-07-10T22:17:49.688Z,67.57
2018-07-10T22:20:20.823Z,66.93
2018-07-10T22:22:51.481Z,70.40
2018-07-10T22:25:21.991Z,68.67
2018-07-10T22:27:52.462Z,69.40
2018-07-10T22:30:28.911Z,71.57
2018-07-10T22:33:03.227Z,67.17
2018-07-10T22:35:35.417Z,66.37
2018-07-10T22:38:06.610Z,66.73
2018-07-10T22:40:38.424Z,69.77
2018-07-10T22:43:09.949Z,69.33
2018-07-10T22:45:40.317Z,67.50
2018-07-10T22:48:10.953Z,68.60
2018-07-10T22:50:41.330Z,66.43
2018-07-10T22:53:11.765Z,65.90
2018-07-10T22:55:42.279Z,65.60
2018-07-10T22:58:13.426Z,64.27
2018-07-10T23:00:43.837Z,143.37
2018-07-10T23:03:22.389Z,65.27
2018-07-10T23:05:53.842Z,68.47
2018-07-10T23:08:34.880Z,67.60
2018-07-10T23:11:07.474Z,66.93
2018-07-10T23:13:43.780Z,65.90
2018-07-10T23:16:14.751Z,65.47
2018-07-10T23:18:47.899Z,64.93
2018-07-10T23:21:20.636Z,64.57
2018-07-10T23:23:51.325Z,65.70
2018-07-10T23:26:22.074Z,65.57
2018-07-10T23:28:55.090Z,64.60
2018-07-10T23:31:30.147Z,65.33
2018-07-10T23:34:10.808Z,64.23
2018-07-10T23:36:41.625Z,64.13
2018-07-10T23:39:20.626Z,67.57
2018-07-10T23:41:55.800Z,64.67
2018-07-10T23:44:45.078Z,66.30
2018-07-10T23:47:49.720Z,66.03
2018-07-10T23:50:29.158Z,64.60
2018-07-10T23:55:13.785Z,66.37
2018-07-10T23:57:44.197Z,64.37
